createdAt,value
2023-02-27T00:04:47.284Z,90.00
2023-02-27T00:12:52.805Z,89.90
2023-02-27T00:21:00.814Z,90.30
2023-02-27T00:29:09.345Z,90.20
2023-02-27T00:37:17.236Z,90.00
2023-02-27T00:45:23.026Z,89.50
2023-02-27T00:53:31.105Z,88.00
2023-02-27T01:01:36.852Z,89.80
2023-02-27T01:09:45.095Z,88.60
2023-02-27T01:17:51.641Z,88.20
2023-02-27T01:25:59.979Z,87.30
2023-02-27T01:34:05.705Z,86.70
2023-02-27T01:42:22.338Z,86.40
2023-02-27T01:50:28.657Z,86.20
2023-02-27T01:58:54.320Z,85.60
2023-02-27T02:07:03.619Z,85.90
2023-02-27T02:15:12.664Z,85.80
2023-02-27T02:24:02.632Z,87.20
2023-02-27T02:32:54.867Z,87.90
2023-02-27T02:41:12.240Z,87.40
2023-02-27T02:49:26.592Z,87.70
2023-02-27T02:57:36.822Z,88.00
2023-02-27T03:05:45.480Z,88.30
2023-02-27T03:13:58.987Z,88.10
2023-02-27T03:22:08.808Z,88.50
2023-02-27T03:30:27.153Z,89.00
2023-02-27T03:38:40.313Z,89.20
2023-02-27T03:46:48.916Z,89.10
2023-02-27T03:55:00.029Z,89.20
2023-02-27T04:03:09.034Z,89.00
2023-02-27T04:11:36.736Z,89.00
2023-02-27T04:20:00.434Z,88.80
2023-02-27T04:28:13.496Z,89.00
2023-02-27T04:36:28.835Z,88.70
2023-02-27T04:44:37.533Z,88.60
2023-02-27T04:52:50.435Z,88.20
2023-02-27T05:01:01.661Z,88.20
2023-02-27T05:09:17.425Z,87.70
2023-02-27T05:17:26.187Z,87.80
2023-02-27T05:25:41.118Z,88.20
2023-02-27T05:33:52.027Z,87.50
2023-02-27T05:42:05.170Z,86.80
2023-02-27T05:50:14.853Z,87.00
2023-02-27T05:58:26.982Z,86.70
2023-02-27T06:06:33.969Z,86.70
2023-02-27T06:14:41.897Z,86.90
2023-02-27T06:22:47.393Z,86.70
2023-02-27T06:30:59.775Z,86.60
2023-02-27T06:39:05.155Z,86.60
2023-02-27T06:47:13.271Z,87.20
2023-02-27T06:55:22.738Z,87.90
2023-02-27T07:03:31.125Z,87.20
2023-02-27T07:11:36.594Z,86.80
2023-02-27T07:19:45.706Z,86.40
2023-02-27T07:27:51.201Z,87.60
2023-02-27T07:35:59.122Z,87.20
2023-02-27T07:44:04.726Z,87.40
2023-02-27T07:52:12.972Z,86.90
2023-02-27T08:00:19.820Z,86.60
2023-02-27T08:08:28.593Z,87.10
2023-02-27T08:16:34.983Z,87.00
2023-02-27T08:24:43.537Z,86.90
2023-02-27T08:32:49.345Z,86.90
2023-02-27T08:40:57.365Z,86.50
2023-02-27T08:49:03.053Z,86.50
2023-02-27T08:57:11.182Z,86.50
2023-02-27T09:05:17.073Z,86.00
2023-02-27T09:13:25.153Z,86.80
2023-02-27T09:21:31.551Z,86.60
2023-02-27T09:29:39.739Z,87.00
2023-02-27T09:37:45.513Z,86.70
2023-02-27T09:45:57.404Z,85.60
2023-02-27T09:54:05.680Z,85.50
2023-02-27T10:02:31.102Z,84.40
2023-02-27T10:10:43.230Z,83.90
2023-02-27T10:18:59.243Z,82.70
2023-02-27T10:27:08.692Z,81.50
2023-02-27T10:35:30.373Z,81.70
2023-02-27T10:43:36.685Z,81.80
2023-02-27T10:51:44.997Z,81.80
2023-02-27T10:59:56.157Z,81.10
2023-02-27T11:08:16.646Z,81.60
2023-02-27T11:16:24.308Z,82.00
2023-02-27T11:24:33.333Z,82.10
2023-02-27T11:32:46.857Z,81.50
2023-02-27T11:40:58.496Z,81.20
2023-02-27T11:49:13.383Z,80.90
2023-02-27T11:57:30.040Z,81.50
2023-02-27T12:05:41.036Z,81.40
2023-02-27T12:13:57.239Z,82.00
2023-02-27T12:22:07.837Z,82.00
2023-02-27T12:30:22.876Z,82.30
2023-02-27T12:38:29.461Z,82.10
2023-02-27T12:46:50.581Z,82.40
2023-02-27T12:55:02.657Z,82.00
2023-02-27T13:03:16.796Z,82.00
2023-02-27T13:11:34.950Z,81.70
2023-02-27T13:19:49.022Z,82.10
2023-02-27T13:27:58.406Z,81.80
2023-02-27T13:36:15.491Z,80.70
2023-02-27T13:44:51.657Z,81.20
2023-02-27T13:52:59.832Z,81.30
2023-02-27T14:19:46.837Z,81.60
2023-02-27T14:27:58.637Z,82.10
2023-02-27T14:36:08.490Z,81.80
2023-02-27T14:44:25.783Z,82.10
2023-02-27T14:52:33.492Z,82.20
2023-02-27T15:00:44.452Z,82.40
2023-02-27T15:08:53.128Z,82.60
2023-02-27T15:17:01.794Z,82.20
2023-02-27T15:25:09.348Z,82.30
2023-02-27T15:33:19.119Z,83.40
2023-02-27T15:41:24.593Z,82.60
2023-02-27T15:49:33.044Z,83.00
2023-02-27T15:57:38.673Z,83.60
2023-02-27T16:14:01.592Z,83.60
2023-02-27T16:22:09.567Z,82.90
2023-02-27T16:30:20.254Z,82.20
2023-02-27T16:38:25.741Z,81.90
2023-02-27T16:46:34.109Z,81.60
2023-02-27T16:54:39.696Z,81.60
2023-02-27T17:02:48.417Z,81.00
2023-02-27T17:10:54.090Z,80.80
2023-02-27T17:19:02.320Z,81.00
2023-02-27T17:27:08.841Z,80.80
2023-02-27T17:35:17.281Z,81.80
2023-02-27T17:43:23.376Z,81.30
2023-02-27T17:51:32.806Z,81.80
2023-02-27T17:59:38.873Z,81.80
2023-02-27T18:07:46.866Z,81.30
2023-02-27T18:15:53.510Z,82.20
2023-02-27T18:24:01.657Z,81.60
2023-02-27T18:32:07.633Z,81.40
2023-02-27T18:40:17.751Z,80.90
2023-02-27T18:48:23.281Z,81.60
2023-02-27T18:56:33.088Z,82.00
2023-02-27T19:04:41.604Z,81.60
2023-02-27T19:12:53.257Z,81.40
2023-02-27T19:20:59.152Z,81.20
2023-02-27T19:29:08.296Z,80.50
2023-02-27T19:37:18.612Z,80.90
2023-02-27T19:45:37.509Z,80.00
2023-02-27T19:53:45.680Z,80.00
2023-02-27T20:01:54.650Z,80.30
2023-02-27T20:10:00.274Z,80.30
2023-02-27T20:18:08.662Z,80.00
2023-02-27T20:26:20.277Z,80.10
2023-02-27T20:34:29.618Z,80.20
2023-02-27T20:42:38.431Z,79.80
2023-02-27T20:50:47.697Z,79.50
2023-02-27T20:58:56.941Z,80.80
2023-02-27T21:07:05.022Z,79.70
2023-02-27T21:15:12.897Z,79.90
2023-02-27T21:23:24.392Z,79.80
2023-02-27T21:31:31.887Z,80.00
2023-02-27T21:39:41.055Z,79.80
2023-02-27T21:47:46.641Z,83.30
2023-02-27T21:55:55.566Z,83.60
2023-02-27T22:04:02.157Z,83.00
2023-02-27T22:12:10.643Z,83.40
2023-02-27T22:20:17.236Z,83.50
2023-02-27T22:28:25.469Z,84.70
2023-02-27T22:36:32.929Z,85.40
2023-02-27T22:44:41.078Z,84.20
2023-02-27T22:52:46.535Z,84.30
2023-02-27T23:00:54.892Z,84.10
2023-02-27T23:09:00.303Z,85.40
2023-02-27T23:17:08.234Z,86.20
2023-02-27T23:25:13.589Z,86.40
2023-02-27T23:33:21.512Z,85.70
2023-02-27T23:41:27.996Z,85.50
2023-02-27T23:49:36.338Z,85.10
2023-02-27T23:57:41.849Z,84.60
